Time;durP1;ratioP1;P1;durP2;ratioP2;P2;SDS_P1;SDS_P2;PMS_P1;PMS_P2;Temp;Humidity;BMP_temperature;BMP_pressure;BME280_temperature;BME280_humidity;BME280_pressure;Samples;Min_cycle;Max_cycle;Signal;HPM_P1;HPM_P2
2023/06/08 00:00:23;;;;;;;25.37;20.27;;;18.30;99.90;;;;;;5035782;28;20443;-82
2023/06/08 00:02:48;;;;;;;25.00;19.20;;;18.30;99.90;;;;;;5035539;28;20183;-81
2023/06/08 00:05:14;;;;;;;20.10;17.90;;;18.30;99.90;;;;;;5033451;28;20183;-81
2023/06/08 00:07:40;;;;;;;17.87;16.07;;;18.30;12.00;;;;;;5033835;28;20193;-79
2023/06/08 00:10:08;;;;;;;18.60;16.10;;;18.30;1.00;;;;;;5031787;28;20238;-81
2023/06/08 00:12:34;;;;;;;17.27;13.73;;;18.30;1.00;;;;;;5034565;28;20942;-80
2023/06/08 00:15:00;;;;;;;16.60;13.83;;;18.20;1.00;;;;;;5036767;28;20432;-80
2023/06/08 00:17:25;;;;;;;20.03;14.20;;;18.20;99.90;;;;;;5033679;28;20848;-80
2023/06/08 00:19:52;;;;;;;20.97;14.90;;;18.20;99.90;;;;;;5033900;28;20195;-81
2023/06/08 00:22:18;;;;;;;16.13;14.10;;;18.20;16.30;;;;;;5029253;28;20182;-81
2023/06/08 00:24:44;;;;;;;15.60;13.63;;;18.20;1.00;;;;;;5031049;28;20512;-82
2023/06/08 00:27:10;;;;;;;18.17;12.17;;;18.10;1.00;;;;;;5034699;28;20820;-81
2023/06/08 00:29:35;;;;;;;16.90;13.17;;;18.10;1.00;;;;;;5031180;28;20753;-80
2023/06/08 00:32:01;;;;;;;19.67;13.93;;;18.10;1.00;;;;;;5033284;28;20457;-81
2023/06/08 00:34:27;;;;;;;19.30;13.20;;;18.00;1.00;;;;;;5028120;28;20180;-79
2023/06/08 00:36:53;;;;;;;17.83;12.93;;;18.00;1.00;;;;;;5033087;28;20228;-82
2023/06/08 00:39:18;;;;;;;17.40;13.00;;;18.00;1.00;;;;;;5030171;28;20466;-81
2023/06/08 00:41:44;;;;;;;15.30;12.80;;;18.00;1.00;;;;;;5033976;28;20185;-82
2023/06/08 00:44:09;;;;;;;22.37;14.20;;;18.00;1.00;;;;;;5033649;28;20184;-81
2023/06/08 00:46:38;;;;;;;18.67;12.90;;;18.00;1.00;;;;;;5032363;28;20324;-81
2023/06/08 00:49:07;;;;;;;16.63;12.67;;;18.00;1.00;;;;;;5031823;28;20237;-82
2023/06/08 00:51:40;;;;;;;21.40;13.87;;;17.90;1.00;;;;;;5034280;28;20438;-81
2023/06/08 00:54:06;;;;;;;14.17;11.90;;;17.90;99.90;;;;;;5034420;28;20814;-82
2023/06/08 00:56:34;;;;;;;19.43;13.37;;;17.90;99.90;;;;;;5034596;28;20488;-80
2023/06/08 00:59:02;;;;;;;18.13;13.40;;;17.80;99.90;;;;;;5033502;28;21127;-82
2023/06/08 01:01:29;;;;;;;18.63;12.50;;;17.80;99.90;;;;;;5029648;28;20530;-81
2023/06/08 01:04:05;;;;;;;19.87;12.97;;;17.80;1.00;;;;;;5030286;28;20976;-81
2023/06/08 01:06:55;;;;;;;21.87;13.00;;;17.80;1.00;;;;;;5032231;28;20570;-80
2023/06/08 01:09:33;;;;;;;19.27;12.10;;;17.80;1.00;;;;;;5028502;28;20487;-81
2023/06/08 01:12:05;;;;;;;22.03;13.90;;;17.70;99.90;;;;;;5034005;28;20464;-81
2023/06/08 01:14:44;;;;;;;18.90;12.83;;;17.70;99.90;;;;;;5033304;28;20840;-81
2023/06/08 01:17:14;;;;;;;20.43;13.47;;;17.70;99.90;;;;;;5030801;28;20500;-81
2023/06/08 01:19:56;;;;;;;18.53;12.60;;;17.70;99.90;;;;;;5032621;28;20429;-81
2023/06/08 01:22:41;;;;;;;18.40;12.60;;;17.70;1.00;;;;;;5028409;28;20436;-80
2023/06/08 01:25:10;;;;;;;15.37;11.70;;;17.60;1.00;;;;;;5027477;28;20837;-80
2023/06/08 01:27:37;;;;;;;19.70;12.57;;;17.60;1.00;;;;;;5030354;28;20868;-80
2023/06/08 01:30:06;;;;;;;14.37;11.23;;;17.60;1.00;;;;;;5028282;28;20476;-81
2023/06/08 01:32:32;;;;;;;19.43;13.10;;;17.50;1.00;;;;;;5030959;28;20484;-81
2023/06/08 01:34:58;;;;;;;19.60;12.63;;;17.50;1.00;;;;;;5033191;28;20946;-82
2023/06/08 01:37:29;;;;;;;19.97;11.77;;;17.40;17.20;;;;;;5032890;28;20870;-81
2023/06/08 01:40:20;;;;;;;18.07;12.37;;;17.30;99.90;;;;;;5036032;28;20191;-82
2023/06/08 01:42:48;;;;;;;16.57;13.40;;;17.30;99.90;;;;;;5033227;28;20444;-82
2023/06/08 01:45:20;;;;;;;19.03;12.23;;;17.30;99.90;;;;;;5034492;28;20923;-81
2023/06/08 01:47:53;;;;;;;18.57;11.67;;;17.30;1.00;;;;;;5036143;28;20824;-82
2023/06/08 01:50:20;;;;;;;16.43;11.83;;;17.20;1.00;;;;;;5032739;28;20428;-81
2023/06/08 01:52:46;;;;;;;19.60;12.83;;;17.20;1.00;;;;;;5037671;28;20444;-81
2023/06/08 01:55:16;;;;;;;24.53;13.07;;;17.20;1.00;;;;;;5036927;28;20443;-80
2023/06/08 01:57:42;;;;;;;24.70;13.33;;;17.20;4.50;;;;;;5038910;28;20886;-80
2023/06/08 02:00:11;;;;;;;19.63;12.43;;;17.10;1.00;;;;;;5037346;28;20436;-79
2023/06/08 02:02:37;;;;;;;20.27;13.13;;;17.10;1.00;;;;;;5034279;28;20197;-79
2023/06/08 02:05:06;;;;;;;21.63;13.40;;;17.10;1.00;;;;;;5037811;28;20504;-80
2023/06/08 02:07:31;;;;;;;23.20;12.37;;;17.10;1.00;;;;;;5036281;28;20506;-80
2023/06/08 02:09:57;;;;;;;19.50;12.13;;;17.10;1.00;;;;;;5035185;28;20444;-79
2023/06/08 02:12:22;;;;;;;21.60;12.70;;;17.00;1.00;;;;;;5036675;28;20288;-83
2023/06/08 02:14:48;;;;;;;21.70;14.53;;;17.00;1.00;;;;;;5039454;28;20197;-81
2023/06/08 02:17:26;;;;;;;27.10;11.97;;;17.00;1.00;;;;;;5036513;28;20247;-80
2023/06/08 02:19:55;;;;;;;21.30;13.03;;;17.00;1.00;;;;;;5029135;28;20231;-80
2023/06/08 02:22:22;;;;;;;20.27;13.50;;;16.90;13.20;;;;;;5035068;28;20515;-80
2023/06/08 02:24:48;;;;;;;19.27;12.70;;;16.90;25.90;;;;;;5031877;28;20467;-79
2023/06/08 02:27:14;;;;;;;23.60;13.20;;;16.80;96.30;;;;;;5035105;28;21076;-80
2023/06/08 02:29:40;;;;;;;18.43;12.47;;;16.80;99.90;;;;;;5034236;28;20440;-81
2023/06/08 02:32:07;;;;;;;16.47;12.70;;;16.80;99.90;;;;;;5033693;28;21150;-80
2023/06/08 02:34:33;;;;;;;23.63;13.03;;;16.80;99.90;;;;;;5036069;28;20498;-80
2023/06/08 02:36:59;;;;;;;19.83;13.13;;;16.70;99.90;;;;;;5033989;28;21002;-81
2023/06/08 02:39:24;;;;;;;26.43;13.77;;;16.70;99.90;;;;;;5031552;28;20183;-81
2023/06/08 02:41:50;;;;;;;16.23;12.60;;;16.70;99.90;;;;;;5037832;28;20428;-81
2023/06/08 02:44:15;;;;;;;24.20;13.60;;;16.70;99.90;;;;;;5029864;28;20186;-81
2023/06/08 02:46:41;;;;;;;18.70;12.77;;;16.60;99.90;;;;;;5037633;28;20186;-81
2023/06/08 02:49:07;;;;;;;22.93;12.60;;;16.60;99.90;;;;;;5027582;28;20275;-81
2023/06/08 02:51:33;;;;;;;20.23;12.63;;;16.60;99.90;;;;;;5031936;28;20822;-82
2023/06/08 02:53:58;;;;;;;19.03;13.13;;;16.50;99.90;;;;;;5033354;28;20312;-82
2023/06/08 02:56:25;;;;;;;25.00;13.93;;;16.50;99.90;;;;;;5031992;28;20559;-82
2023/06/08 02:58:51;;;;;;;23.73;13.73;;;16.50;99.90;;;;;;5033152;28;20292;-82
2023/06/08 03:01:17;;;;;;;24.00;12.70;;;16.50;99.90;;;;;;5025933;28;20535;-82
2023/06/08 03:03:43;;;;;;;22.30;14.17;;;16.50;99.90;;;;;;5034941;28;20540;-82
2023/06/08 03:06:09;;;;;;;23.23;13.60;;;16.40;99.90;;;;;;5036022;28;20440;-81
2023/06/08 03:08:39;;;;;;;24.80;13.33;;;16.40;99.90;;;;;;5034173;28;20470;-80
2023/06/08 03:11:04;;;;;;;22.80;13.50;;;16.30;99.90;;;;;;5030862;28;20447;-81
2023/06/08 03:13:30;;;;;;;28.47;14.83;;;16.30;99.90;;;;;;5036035;28;20478;-81
2023/06/08 03:15:56;;;;;;;20.33;13.27;;;16.20;1.00;;;;;;5032646;28;20210;-80
2023/06/08 03:18:22;;;;;;;18.27;13.93;;;16.20;1.00;;;;;;5034893;28;20206;-80
2023/06/08 03:20:51;;;;;;;21.40;13.30;;;16.10;1.00;;;;;;5035317;28;20186;-81
2023/06/08 03:23:20;;;;;;;17.43;13.37;;;16.10;1.00;;;;;;5034775;28;20436;-79
2023/06/08 03:25:50;;;;;;;20.73;12.97;;;16.00;1.00;;;;;;5030393;28;20449;-81
2023/06/08 03:28:16;;;;;;;23.03;14.60;;;16.00;5.70;;;;;;5033613;28;20830;-80
2023/06/08 03:30:42;;;;;;;22.13;14.20;;;16.10;20.60;;;;;;5034777;28;20460;-80
2023/06/08 03:33:07;;;;;;;28.30;14.60;;;16.10;14.00;;;;;;5034861;28;20444;-80
2023/06/08 03:35:33;;;;;;;23.80;12.80;;;16.10;1.00;;;;;;5033456;28;20192;-81
2023/06/08 03:37:59;;;;;;;21.67;14.23;;;16.10;1.00;;;;;;5035065;28;20738;-81
2023/06/08 03:40:25;;;;;;;20.77;14.10;;;16.10;1.00;;;;;;5035677;28;20189;-81
2023/06/08 03:42:50;;;;;;;27.80;14.10;;;16.10;1.40;;;;;;5033317;28;20440;-81
2023/06/08 03:45:17;;;;;;;20.90;13.53;;;16.10;49.40;;;;;;5035134;28;20190;-81
2023/06/08 03:47:43;;;;;;;21.90;13.73;;;16.20;28.80;;;;;;5033317;28;20281;-81
2023/06/08 03:50:11;;;;;;;27.77;13.83;;;16.20;1.00;;;;;;5035359;28;21175;-81
2023/06/08 03:52:38;;;;;;;20.63;14.50;;;16.20;1.00;;;;;;5033532;28;20190;-81
2023/06/08 03:55:13;;;;;;;23.03;13.67;;;16.20;1.00;;;;;;5034424;28;20436;-79
2023/06/08 03:57:38;;;;;;;23.70;14.60;;;16.30;1.00;;;;;;5031144;28;20512;-80
2023/06/08 04:00:11;;;;;;;22.63;14.43;;;16.30;1.00;;;;;;5035273;28;20429;-81
2023/06/08 04:02:37;;;;;;;25.77;14.77;;;16.30;1.00;;;;;;5029484;28;20189;-81
2023/06/08 04:05:04;;;;;;;22.33;13.50;;;16.40;1.00;;;;;;5034709;28;20456;-81
2023/06/08 04:07:29;;;;;;;17.93;12.93;;;16.50;99.90;;;;;;5032389;28;20486;-80
2023/06/08 04:09:55;;;;;;;23.13;14.23;;;16.50;99.90;;;;;;5031186;28;20452;-80
2023/06/08 04:12:20;;;;;;;20.27;15.07;;;16.60;99.90;;;;;;5033282;28;20524;-80
2023/06/08 04:14:48;;;;;;;24.83;14.90;;;16.60;1.00;;;;;;5034332;28;20190;-80
2023/06/08 04:17:13;;;;;;;23.83;14.33;;;16.70;1.00;;;;;;5034357;28;20216;-81
2023/06/08 04:19:39;;;;;;;22.40;15.03;;;16.70;1.00;;;;;;5033887;28;20437;-80
2023/06/08 04:22:04;;;;;;;24.80;13.87;;;16.80;1.00;;;;;;5033819;28;20185;-80
2023/06/08 04:24:30;;;;;;;18.23;14.50;;;16.80;99.90;;;;;;5032219;28;20178;-80
2023/06/08 04:26:56;;;;;;;21.97;13.50;;;16.90;99.90;;;;;;5031561;28;20265;-80
2023/06/08 04:29:22;;;;;;;16.70;13.57;;;17.00;99.90;;;;;;5033601;28;20698;-80
2023/06/08 04:31:48;;;;;;;23.90;13.47;;;17.00;20.90;;;;;;5033378;28;20448;-80
2023/06/08 04:34:14;;;;;;;19.20;12.70;;;17.10;1.00;;;;;;5030618;28;20651;-81
2023/06/08 04:36:42;;;;;;;22.27;12.90;;;17.20;1.00;;;;;;5032977;28;20206;-80
2023/06/08 04:39:08;;;;;;;20.77;13.37;;;17.30;99.90;;;;;;5033324;28;20429;-81
2023/06/08 04:41:34;;;;;;;17.63;12.73;;;17.40;99.90;;;;;;5033255;28;20430;-81
2023/06/08 04:44:01;;;;;;;22.90;12.90;;;17.50;1.00;;;;;;5030458;28;20448;-81
2023/06/08 04:46:28;;;;;;;18.80;13.27;;;17.60;1.00;;;;;;5031196;28;20526;-82
2023/06/08 04:48:55;;;;;;;24.37;13.33;;;17.70;1.00;;;;;;5032659;28;20472;-81
2023/06/08 04:51:23;;;;;;;19.90;12.80;;;17.80;99.90;;;;;;5034067;28;20434;-81
2023/06/08 04:53:50;;;;;;;20.23;13.90;;;17.90;99.90;;;;;;5033254;28;20525;-82
2023/06/08 04:56:18;;;;;;;26.60;13.47;;;18.00;99.90;;;;;;5024397;28;20484;-82
2023/06/08 04:58:45;;;;;;;29.73;14.97;;;18.10;42.00;;;;;;5030014;28;20470;-80
2023/06/08 05:01:11;;;;;;;18.87;13.83;;;18.20;1.00;;;;;;5031003;28;20417;-80
2023/06/08 05:03:36;;;;;;;18.37;12.63;;;18.30;1.00;;;;;;5026218;28;20484;-81
2023/06/08 05:06:02;;;;;;;20.80;13.33;;;18.40;99.90;;;;;;5030933;28;20307;-82
2023/06/08 05:08:27;;;;;;;27.30;14.03;;;18.50;99.90;;;;;;5026615;28;20209;-82
2023/06/08 05:10:53;;;;;;;22.00;13.80;;;18.60;15.60;;;;;;5034054;28;20221;-82
2023/06/08 05:13:18;;;;;;;25.93;14.13;;;18.70;1.00;;;;;;5033938;28;20231;-82
2023/06/08 05:15:44;;;;;;;21.20;14.87;;;18.80;1.00;;;;;;5033121;28;20697;-81
2023/06/08 05:18:09;;;;;;;24.43;14.77;;;18.90;99.90;;;;;;5029865;28;20722;-82
2023/06/08 05:20:35;;;;;;;16.50;12.77;;;19.00;99.90;;;;;;5034379;28;20765;-82
2023/06/08 05:23:01;;;;;;;25.40;15.40;;;19.00;99.90;;;;;;5035942;28;20188;-81
2023/06/08 05:25:26;;;;;;;22.70;14.50;;;19.10;43.20;;;;;;5034567;28;20239;-82
2023/06/08 05:27:52;;;;;;;20.70;15.50;;;19.20;1.00;;;;;;5035835;28;20236;-81
2023/06/08 05:30:17;;;;;;;21.80;15.60;;;19.20;1.00;;;;;;5036689;28;20230;-81
2023/06/08 05:32:43;;;;;;;27.20;15.57;;;19.30;1.00;;;;;;5034032;28;20538;-81
2023/06/08 05:35:09;;;;;;;17.60;14.10;;;19.40;1.00;;;;;;5032370;28;20199;-81
2023/06/08 05:37:34;;;;;;;22.87;14.90;;;19.50;1.00;;;;;;5036280;28;20228;-82
2023/06/08 05:40:00;;;;;;;22.07;13.50;;;19.60;99.90;;;;;;5037223;28;20238;-82
2023/06/08 05:42:25;;;;;;;24.93;13.07;;;19.70;99.90;;;;;;5036922;28;20184;-81
2023/06/08 05:44:51;;;;;;;25.93;15.33;;;19.80;99.90;;;;;;5036639;28;22562;-80
2023/06/08 05:47:17;;;;;;;21.23;13.20;;;19.90;99.90;;;;;;5037578;28;20208;-83
2023/06/08 05:49:42;;;;;;;19.30;14.63;;;20.00;99.90;;;;;;5037002;28;20694;-81
2023/06/08 05:52:08;;;;;;;18.53;13.70;;;20.10;97.20;;;;;;5034894;28;20207;-82
2023/06/08 05:54:33;;;;;;;21.53;13.40;;;20.20;25.00;;;;;;5035572;28;20186;-82
2023/06/08 05:57:00;;;;;;;19.77;12.90;;;20.40;1.00;;;;;;5028596;28;20746;-82
2023/06/08 05:59:26;;;;;;;19.53;12.20;;;20.50;1.00;;;;;;5032668;28;20554;-82
2023/06/08 06:01:52;;;;;;;17.50;13.80;;;20.70;1.00;;;;;;5035202;28;20457;-81
2023/06/08 06:04:17;;;;;;;16.27;13.20;;;20.80;1.00;;;;;;5036304;28;20248;-82
2023/06/08 06:06:43;;;;;;;19.80;12.13;;;21.10;1.00;;;;;;5037499;28;20198;-82
2023/06/08 06:09:11;;;;;;;16.83;12.17;;;21.60;1.00;;;;;;5027076;28;20193;-83
2023/06/08 06:11:36;;;;;;;16.17;10.83;;;22.70;99.90;;;;;;5036305;28;20242;-82
2023/06/08 06:14:02;;;;;;;18.33;10.60;;;25.10;99.90;;;;;;5035414;28;20670;-84
2023/06/08 06:16:27;;;;;;;17.70;12.00;;;28.00;99.90;;;;;;5036580;28;20560;-83
2023/06/08 06:18:53;;;;;;;17.07;10.10;;;30.50;99.90;;;;;;5038263;28;20224;-84
2023/06/08 06:21:18;;;;;;;16.30;10.40;;;32.70;99.90;;;;;;5037208;28;20197;-82
2023/06/08 06:23:46;;;;;;;11.93;9.97;;;34.50;99.90;;;;;;5037211;28;20213;-84
2023/06/08 06:26:12;;;;;;;15.03;9.43;;;35.90;99.90;;;;;;5037609;28;20584;-84
2023/06/08 06:28:40;;;;;;;14.33;8.90;;;37.00;99.90;;;;;;5029465;28;20460;-84
2023/06/08 06:31:06;;;;;;;15.00;9.40;;;38.20;99.90;;;;;;5026239;28;20205;-83
2023/06/08 06:33:32;;;;;;;12.50;9.70;;;39.40;99.90;;;;;;5034106;28;20428;-84
2023/06/08 06:35:58;;;;;;;11.63;8.43;;;40.30;99.90;;;;;;5035496;28;20464;-82
2023/06/08 06:38:25;;;;;;;9.90;7.87;;;41.20;99.90;;;;;;5037147;28;20221;-81
2023/06/08 06:40:52;;;;;;;13.20;8.47;;;42.10;94.90;;;;;;5033933;28;20903;-81
2023/06/08 06:43:21;;;;;;;11.77;9.00;;;42.60;88.70;;;;;;5037315;28;20248;-83
2023/06/08 06:45:50;;;;;;;12.50;8.70;;;43.20;77.10;;;;;;5037122;28;20527;-84
2023/06/08 06:48:20;;;;;;;12.90;8.37;;;43.60;65.20;;;;;;5038091;28;20452;-82
2023/06/08 06:50:45;;;;;;;8.80;7.67;;;44.20;57.70;;;;;;5037343;28;20443;-83
2023/06/08 06:53:11;;;;;;;9.50;7.80;;;45.00;52.30;;;;;;5036899;28;21885;-82
2023/06/08 06:55:37;;;;;;;12.77;8.27;;;45.90;36.10;;;;;;5041737;28;20281;-84
2023/06/08 06:58:05;;;;;;;17.63;8.13;;;47.00;30.80;;;;;;5037883;28;20236;-84
2023/06/08 07:00:32;;;;;;;7.73;7.00;;;47.90;26.30;;;;;;5038137;28;20190;-83
2023/06/08 07:02:58;;;;;;;9.33;7.53;;;48.70;21.70;;;;;;5038144;28;20428;-82
2023/06/08 07:05:23;;;;;;;12.10;6.97;;;49.60;28.30;;;;;;5038472;28;20494;-84
2023/06/08 07:07:49;;;;;;;11.20;7.00;;;50.50;15.00;;;;;;5040624;28;20216;-84
2023/06/08 07:10:14;;;;;;;9.50;7.23;;;51.20;11.50;;;;;;5041622;28;20182;-83
2023/06/08 07:12:40;;;;;;;7.83;6.43;;;51.60;7.50;;;;;;5040121;28;20210;-85
2023/06/08 07:15:06;;;;;;;9.63;6.20;;;52.10;4.60;;;;;;5038922;28;20272;-85
2023/06/08 07:17:32;;;;;;;12.15;7.28;;;52.80;3.00;;;;;;5037142;28;20237;-85
2023/06/08 07:19:58;;;;;;;8.50;6.80;;;53.50;1.10;;;;;;5038498;28;20192;-83
2023/06/08 07:22:24;;;;;;;9.63;7.15;;;53.90;1.00;;;;;;5041744;28;20261;-82
2023/06/08 07:24:49;;;;;;;9.43;7.35;;;54.10;1.00;;;;;;5041952;28;20205;-81
2023/06/08 07:27:15;;;;;;;12.13;6.78;;;54.70;1.00;;;;;;5043303;28;20706;-83
2023/06/08 07:29:40;;;;;;;8.27;6.50;;;55.00;1.00;;;;;;5043001;28;20970;-83
2023/06/08 07:32:07;;;;;;;10.30;6.50;;;55.60;1.00;;;;;;5041433;28;20247;-83
2023/06/08 07:34:32;;;;;;;8.10;6.03;;;55.80;1.00;;;;;;5053196;28;20178;-82
2023/06/08 07:36:58;;;;;;;6.68;6.00;;;55.40;1.00;;;;;;5042997;28;20236;-81
2023/06/08 07:39:23;;;;;;;7.10;6.43;;;55.20;1.00;;;;;;5042547;28;20182;-83
2023/06/08 07:41:49;;;;;;;9.20;6.70;;;55.10;1.00;;;;;;5043999;28;20185;-82
2023/06/08 07:44:14;;;;;;;7.38;6.47;;;55.10;1.00;;;;;;5040969;28;21102;-84
2023/06/08 07:46:40;;;;;;;7.30;6.05;;;55.00;1.00;;;;;;5035144;28;20289;-83
2023/06/08 07:49:05;;;;;;;10.18;6.38;;;54.90;1.00;;;;;;5039872;28;20212;-83
2023/06/08 07:51:31;;;;;;;6.57;5.70;;;55.10;1.00;;;;;;5037343;28;20190;-83
2023/06/08 07:53:56;;;;;;;6.68;5.88;;;55.30;1.00;;;;;;5043468;28;20181;-82
2023/06/08 07:56:22;;;;;;;9.32;6.50;;;55.30;1.00;;;;;;5042991;28;20193;-84
2023/06/08 07:58:48;;;;;;;7.30;5.75;;;55.20;1.00;;;;;;5041617;28;20771;-83
2023/06/08 08:01:14;;;;;;;5.78;5.28;;;55.20;1.00;;;;;;5041153;28;20193;-83
2023/06/08 08:03:39;;;;;;;9.35;6.35;;;55.40;1.00;;;;;;5038661;28;20185;-81
2023/06/08 08:06:06;;;;;;;6.85;6.15;;;55.50;1.00;;;;;;5036730;28;20419;-83
2023/06/08 08:08:32;;;;;;;7.32;5.82;;;55.60;1.00;;;;;;5033647;28;20675;-82
2023/06/08 08:10:57;;;;;;;6.70;5.95;;;55.90;1.00;;;;;;5035370;28;20228;-80
2023/06/08 08:13:23;;;;;;;8.50;6.20;;;56.10;1.00;;;;;;5035374;28;20889;-85
2023/06/08 08:15:48;;;;;;;8.57;5.90;;;56.40;1.00;;;;;;5042234;28;20264;-83
2023/06/08 08:18:14;;;;;;;6.95;5.90;;;56.60;1.00;;;;;;5039532;28;20589;-85
2023/06/08 08:20:39;;;;;;;7.97;5.93;;;56.60;1.00;;;;;;5040301;28;20177;-84
2023/06/08 08:23:05;;;;;;;9.50;5.90;;;56.50;1.00;;;;;;5033535;28;20194;-84
2023/06/08 08:25:31;;;;;;;6.85;5.22;;;56.30;1.00;;;;;;5041224;28;20189;-83
2023/06/08 08:27:57;;;;;;;7.63;5.75;;;56.00;1.00;;;;;;5041772;28;20424;-84
2023/06/08 08:30:23;;;;;;;7.90;6.13;;;55.80;1.00;;;;;;5041349;28;20199;-83
2023/06/08 08:32:48;;;;;;;8.15;5.65;;;55.70;1.00;;;;;;5045872;28;20212;-84
2023/06/08 08:35:14;;;;;;;6.70;5.72;;;55.70;1.00;;;;;;5024542;28;20186;-82
2023/06/08 08:37:42;;;;;;;7.20;6.43;;;55.70;1.00;;;;;;5043993;28;20253;-82
2023/06/08 08:40:09;;;;;;;8.27;5.32;;;55.50;1.00;;;;;;5044036;28;20580;-83
2023/06/08 08:42:41;;;;;;;7.15;6.47;;;55.40;1.00;;;;;;5042107;28;20181;-84
2023/06/08 08:45:09;;;;;;;6.85;5.80;;;55.40;1.00;;;;;;5043566;28;20216;-83
2023/06/08 08:47:37;;;;;;;7.93;5.75;;;55.60;1.00;;;;;;5043865;28;20201;-83
2023/06/08 08:50:06;;;;;;;5.78;5.10;;;55.80;1.00;;;;;;5043886;28;20189;-85
2023/06/08 08:52:33;;;;;;;10.90;6.13;;;55.50;1.00;;;;;;5044319;28;20196;-84
2023/06/08 08:55:00;;;;;;;6.90;5.88;;;55.40;1.00;;;;;;5043984;28;20545;-84
2023/06/08 08:57:29;;;;;;;7.65;7.00;;;55.20;1.00;;;;;;5043835;28;20209;-84
2023/06/08 08:59:55;;;;;;;6.72;6.13;;;55.00;1.00;;;;;;5044727;28;20185;-84
2023/06/08 09:02:21;;;;;;;6.60;6.00;;;54.90;1.00;;;;;;5043928;28;20181;-84
2023/06/08 09:04:47;;;;;;;10.82;6.15;;;54.60;1.00;;;;;;5043673;28;20432;-84
2023/06/08 09:07:20;;;;;;;6.50;5.30;;;54.40;1.00;;;;;;5043572;28;20221;-84
2023/06/08 09:10:22;;;;;;;6.90;5.57;;;54.40;1.00;;;;;;5044141;28;20177;-83
2023/06/08 09:12:50;;;;;;;6.83;5.70;;;54.40;1.00;;;;;;5046216;28;20177;-83
2023/06/08 09:15:26;;;;;;;6.73;6.13;;;54.00;1.00;;;;;;5043267;28;20204;-83
2023/06/08 09:17:53;;;;;;;7.03;6.20;;;54.20;1.00;;;;;;5052275;28;20729;-83
2023/06/08 09:20:27;;;;;;;5.60;5.20;;;53.90;1.00;;;;;;5058965;28;20181;-85
2023/06/08 09:22:53;;;;;;;6.40;5.80;;;53.70;1.00;;;;;;5044582;28;20177;-85
2023/06/08 09:25:36;;;;;;;8.33;6.57;;;53.60;1.00;;;;;;5043606;28;20165;-83
2023/06/08 09:28:26;;;;;;;6.97;6.33;;;53.20;1.00;;;;;;5043208;28;20252;-83
2023/06/08 09:30:52;;;;;;;7.30;6.53;;;53.00;1.00;;;;;;5041465;28;20220;-83
2023/06/08 09:33:33;;;;;;;8.50;7.60;;;52.70;1.00;;;;;;5040399;28;20182;-84
2023/06/08 09:35:58;;;;;;;7.40;6.40;;;52.40;1.00;;;;;;5040458;28;20481;-83
2023/06/08 09:38:26;;;;;;;8.40;6.83;;;51.60;1.00;;;;;;5042243;28;20503;-84
2023/06/08 09:41:11;;;;;;;8.80;6.80;;;51.10;1.00;;;;;;5041572;28;20201;-84
2023/06/08 09:43:37;;;;;;;10.47;6.53;;;50.40;1.00;;;;;;5034634;28;20413;-84
2023/06/08 09:46:02;;;;;;;7.40;6.60;;;50.40;1.00;;;;;;5040988;28;20528;-84
2023/06/08 09:48:28;;;;;;;6.80;6.20;;;50.50;1.00;;;;;;5040926;28;20225;-83
2023/06/08 09:51:02;;;;;;;8.33;7.60;;;50.50;1.00;;;;;;5040927;28;20264;-84
2023/06/08 09:53:31;;;;;;;9.00;7.30;;;50.20;1.00;;;;;;5032952;28;20178;-84
2023/06/08 09:55:58;;;;;;;10.40;6.90;;;49.80;1.00;;;;;;5041902;28;20441;-84
2023/06/08 09:58:25;;;;;;;7.67;6.97;;;49.60;1.00;;;;;;5041068;28;20448;-82
2023/06/08 10:00:58;;;;;;;9.50;7.37;;;49.50;1.00;;;;;;5042642;28;20434;-83
2023/06/08 10:03:30;;;;;;;7.17;6.47;;;49.20;1.00;;;;;;5045031;28;20451;-83
2023/06/08 10:05:58;;;;;;;8.37;7.57;;;49.10;1.00;;;;;;5042009;28;20457;-82
2023/06/08 10:08:27;;;;;;;7.33;6.63;;;49.10;1.00;;;;;;5046899;28;20452;-84
2023/06/08 10:10:54;;;;;;;9.80;7.27;;;49.10;1.00;;;;;;5040821;28;20926;-82
2023/06/08 10:13:21;;;;;;;7.43;6.50;;;49.20;1.00;;;;;;5045942;28;20482;-83
2023/06/08 10:15:47;;;;;;;8.10;6.87;;;49.20;1.00;;;;;;5045304;28;20444;-84
2023/06/08 10:18:13;;;;;;;9.53;8.50;;;49.20;1.00;;;;;;5046373;28;20436;-85
2023/06/08 10:20:40;;;;;;;8.83;8.03;;;49.30;1.00;;;;;;5044816;28;20447;-83
2023/06/08 10:23:06;;;;;;;10.30;7.03;;;49.40;1.00;;;;;;5044924;28;20181;-84
2023/06/08 10:25:33;;;;;;;9.37;8.30;;;48.90;1.00;;;;;;5046080;28;20452;-83
2023/06/08 10:28:09;;;;;;;9.80;8.07;;;48.50;1.00;;;;;;5047132;28;20473;-85
2023/06/08 10:30:40;;;;;;;9.83;8.67;;;48.20;1.00;;;;;;5044974;28;20408;-84
2023/06/08 10:33:15;;;;;;;8.30;7.43;;;47.40;1.00;;;;;;5038091;28;20437;-83
2023/06/08 10:36:01;;;;;;;11.57;6.73;;;47.10;1.00;;;;;;5045111;28;20427;-84
2023/06/08 10:38:26;;;;;;;7.80;7.00;;;47.00;1.00;;;;;;5044998;28;20547;-82
2023/06/08 10:40:52;;;;;;;6.90;6.20;;;46.90;1.00;;;;;;5045781;28;20401;-83
2023/06/08 10:43:22;;;;;;;8.97;7.27;;;47.00;1.00;;;;;;5044207;28;20737;-84
2023/06/08 10:45:50;;;;;;;7.73;6.60;;;46.60;1.00;;;;;;5047449;28;20182;-84
2023/06/08 10:48:18;;;;;;;9.77;7.80;;;46.00;1.00;;;;;;5046422;28;20467;-83
2023/06/08 10:50:45;;;;;;;7.80;7.03;;;45.70;1.00;;;;;;5045324;28;20425;-83
2023/06/08 10:53:10;;;;;;;8.33;7.50;;;45.20;1.00;;;;;;5044959;28;20519;-82
2023/06/08 10:55:36;;;;;;;7.67;6.97;;;45.00;1.00;;;;;;5044210;28;20429;-83
2023/06/08 10:58:14;;;;;;;8.27;6.97;;;44.90;1.00;;;;;;5045678;28;20256;-84
2023/06/08 11:00:43;;;;;;;8.70;6.80;;;45.00;1.00;;;;;;5045397;28;20463;-82
2023/06/08 11:03:14;;;;;;;9.47;7.37;;;44.90;1.00;;;;;;5045248;28;20436;-82
2023/06/08 11:05:44;;;;;;;9.33;7.47;;;44.70;1.00;;;;;;5044889;28;20448;-82
2023/06/08 11:08:11;;;;;;;8.10;7.40;;;44.30;1.00;;;;;;5043797;28;20472;-83
2023/06/08 11:10:41;;;;;;;9.37;7.10;;;44.40;1.00;;;;;;5044409;28;20897;-82
2023/06/08 11:13:09;;;;;;;7.97;7.30;;;44.50;1.00;;;;;;5045637;28;20424;-83
2023/06/08 11:15:40;;;;;;;7.77;6.97;;;44.80;1.00;;;;;;5044433;28;20422;-82
2023/06/08 11:18:08;;;;;;;10.23;7.50;;;44.70;1.00;;;;;;5047335;28;20494;-82
2023/06/08 11:20:37;;;;;;;9.40;7.13;;;44.30;1.00;;;;;;5043561;28;20449;-81
2023/06/08 11:23:05;;;;;;;8.67;7.80;;;44.10;1.00;;;;;;5043528;28;20447;-84
2023/06/08 11:25:30;;;;;;;8.70;7.90;;;43.80;1.00;;;;;;5043102;28;20424;-83
2023/06/08 11:27:57;;;;;;;8.13;7.33;;;43.60;1.00;;;;;;5043804;28;20547;-83
2023/06/08 11:30:27;;;;;;;8.33;7.23;;;43.70;1.00;;;;;;5042565;28;20297;-83
2023/06/08 11:32:53;;;;;;;8.50;7.00;;;43.80;1.00;;;;;;5043595;28;20409;-82
2023/06/08 11:35:21;;;;;;;8.63;7.73;;;43.70;1.00;;;;;;5049422;28;20515;-84
2023/06/08 11:37:52;;;;;;;9.40;7.97;;;44.10;1.00;;;;;;5048496;28;20218;-82
2023/06/08 11:40:18;;;;;;;10.43;7.47;;;44.20;1.00;;;;;;5047710;28;20436;-84
2023/06/08 11:42:44;;;;;;;10.13;7.10;;;43.90;1.00;;;;;;5048929;28;20519;-82
2023/06/08 11:45:12;;;;;;;8.63;7.67;;;43.80;1.00;;;;;;5047303;28;20492;-82
2023/06/08 11:47:42;;;;;;;8.07;7.27;;;43.50;1.00;;;;;;5045383;28;20468;-83
2023/06/08 11:50:09;;;;;;;7.40;6.70;;;43.10;1.00;;;;;;5047046;28;20416;-83
2023/06/08 11:52:35;;;;;;;8.70;6.63;;;43.30;1.00;;;;;;5046737;28;20440;-84
2023/06/08 11:55:15;;;;;;;10.03;6.90;;;43.60;1.00;;;;;;5045665;28;20425;-84
2023/06/08 11:57:41;;;;;;;10.50;7.50;;;43.80;1.00;;;;;;5051552;28;20440;-84
2023/06/08 12:00:09;;;;;;;10.70;7.67;;;43.90;1.00;;;;;;5043743;28;20439;-83
2023/06/08 12:02:38;;;;;;;8.10;6.63;;;44.10;1.00;;;;;;5035301;28;20201;-83
2023/06/08 12:05:05;;;;;;;9.57;6.50;;;44.30;1.00;;;;;;5042791;28;20413;-84
2023/06/08 12:07:33;;;;;;;9.17;7.30;;;43.90;1.00;;;;;;5042166;28;20476;-83
2023/06/08 12:09:59;;;;;;;8.97;7.20;;;43.90;1.00;;;;;;5036449;28;20429;-83
2023/06/08 12:12:28;;;;;;;10.37;6.90;;;44.00;1.00;;;;;;5040884;28;20480;-84
2023/06/08 12:14:55;;;;;;;10.40;7.87;;;43.90;1.00;;;;;;5047539;28;20501;-84
2023/06/08 12:17:26;;;;;;;9.83;7.73;;;43.80;1.00;;;;;;5042947;28;20902;-83
2023/06/08 12:19:55;;;;;;;16.77;8.00;;;43.80;1.00;;;;;;5044145;28;20499;-82
2023/06/08 12:22:21;;;;;;;7.83;6.83;;;43.60;1.00;;;;;;5044174;28;20421;-83
2023/06/08 12:24:46;;;;;;;7.00;6.30;;;43.50;1.00;;;;;;5042679;28;20504;-84
2023/06/08 12:27:12;;;;;;;11.83;8.27;;;43.40;1.00;;;;;;5057178;28;20506;-83
2023/06/08 12:29:38;;;;;;;8.50;7.60;;;43.20;1.00;;;;;;5042646;28;20186;-83
2023/06/08 12:32:04;;;;;;;10.50;7.83;;;42.80;1.00;;;;;;5042883;28;20249;-83
2023/06/08 12:34:33;;;;;;;11.00;7.63;;;42.30;1.00;;;;;;5040248;28;20182;-84
2023/06/08 12:36:59;;;;;;;8.70;7.13;;;41.80;1.00;;;;;;5042106;28;20464;-83
2023/06/08 12:39:24;;;;;;;8.80;8.00;;;41.70;1.00;;;;;;5042334;28;20930;-83
2023/06/08 12:41:50;;;;;;;7.90;7.20;;;41.40;1.00;;;;;;5042109;28;20241;-83
2023/06/08 12:44:16;;;;;;;7.97;7.17;;;41.20;1.00;;;;;;5042632;28;20178;-84